Time;durP1;ratioP1;P1;durP2;ratioP2;P2;SDS_P1;SDS_P2;PMS_P1;PMS_P2;Temp;Humidity;BMP_temperature;BMP_pressure;BME280_temperature;BME280_humidity;BME280_pressure;Samples;Min_cycle;Max_cycle;Signal;HPM_P1;HPM_P2
2024/01/29 00:00:32;;;;;;;11.95;4.82;;;;;;;;;;5073546;28;20028;-84
2024/01/29 00:02:58;;;;;;;12.25;4.88;;;;;;;;;;5073601;28;20032;-83
2024/01/29 00:05:24;;;;;;;13.25;5.38;;;;;;;;;;5073576;28;20032;-82
2024/01/29 00:07:50;;;;;;;10.23;4.35;;;;;;;;;;5073495;28;20383;-83
2024/01/29 00:10:16;;;;;;;7.32;4.53;;;;;;;;;;5073381;28;20024;-83
2024/01/29 00:12:42;;;;;;;11.40;4.30;;;;;;;;;;5073300;28;20043;-83
2024/01/29 00:15:09;;;;;;;10.57;3.72;;;;;;;;;;5073176;28;20020;-83
2024/01/29 00:17:35;;;;;;;11.10;4.93;;;;;;;;;;5072966;28;20024;-83
2024/01/29 00:20:01;;;;;;;11.52;4.53;;;;;;;;;;5072905;28;20111;-84
2024/01/29 00:22:28;;;;;;;8.15;4.60;;;;;;;;;;5078915;28;20013;-85
2024/01/29 00:24:54;;;;;;;8.00;4.22;;;;;;;;;;5073327;28;20016;-85
2024/01/29 00:27:20;;;;;;;10.80;4.88;;;;;;;;;;5073321;28;20029;-85
2024/01/29 00:29:46;;;;;;;8.98;4.22;;;;;;;;;;5074742;28;20020;-85
2024/01/29 00:32:12;;;;;;;11.02;5.13;;;;;;;;;;5072842;28;20477;-85
2024/01/29 00:34:39;;;;;;;9.38;4.60;;;;;;;;;;5072918;28;20027;-89
2024/01/29 00:37:05;;;;;;;11.35;4.63;;;;;;;;;;5075250;28;20417;-88
2024/01/29 00:39:31;;;;;;;8.40;3.63;;;;;;;;;;5074598;28;20036;-88
2024/01/29 00:41:58;;;;;;;8.82;3.90;;;;;;;;;;5075010;28;20025;-87
2024/01/29 00:44:24;;;;;;;12.68;4.80;;;;;;;;;;5074932;28;20070;-88
2024/01/29 00:46:50;;;;;;;10.45;3.90;;;;;;;;;;5073783;28;20020;-87
2024/01/29 00:49:16;;;;;;;10.73;5.07;;;;;;;;;;5073346;28;20044;-87
2024/01/29 00:51:42;;;;;;;9.95;5.28;;;;;;;;;;5074886;28;20073;-88
2024/01/29 00:54:08;;;;;;;10.18;4.90;;;;;;;;;;5073866;28;20388;-88
2024/01/29 00:56:34;;;;;;;8.68;4.45;;;;;;;;;;5074223;28;20479;-88
2024/01/29 00:59:00;;;;;;;8.93;4.45;;;;;;;;;;5074266;28;20028;-88
2024/01/29 01:01:26;;;;;;;7.72;3.90;;;;;;;;;;5075224;28;20411;-87
2024/01/29 01:03:52;;;;;;;11.38;4.30;;;;;;;;;;5074310;28;20186;-89
2024/01/29 01:06:18;;;;;;;9.35;4.32;;;;;;;;;;5073954;28;20067;-88
2024/01/29 01:08:44;;;;;;;9.52;4.20;;;;;;;;;;5073310;28;20032;-88
2024/01/29 01:11:10;;;;;;;9.43;4.68;;;;;;;;;;5073786;28;20043;-89
2024/01/29 01:13:36;;;;;;;7.45;4.30;;;;;;;;;;5074856;28;20020;-87
2024/01/29 01:16:02;;;;;;;11.05;5.30;;;;;;;;;;5076922;28;20059;-87
2024/01/29 01:18:28;;;;;;;10.98;4.63;;;;;;;;;;5088690;28;20017;-86
2024/01/29 01:20:54;;;;;;;11.50;5.47;;;;;;;;;;5096658;28;20033;-79
2024/01/29 01:23:20;;;;;;;10.38;5.00;;;;;;;;;;5096895;28;20035;-81
2024/01/29 01:25:46;;;;;;;9.82;4.75;;;;;;;;;;5091780;28;20024;-84
2024/01/29 01:28:12;;;;;;;9.50;4.47;;;;;;;;;;5073718;28;20028;-83
2024/01/29 01:30:38;;;;;;;11.65;4.70;;;;;;;;;;5071084;28;20040;-85
2024/01/29 01:33:04;;;;;;;10.27;4.93;;;;;;;;;;5071326;28;20438;-85
2024/01/29 01:35:31;;;;;;;8.98;4.82;;;;;;;;;;5072936;28;20032;-85
2024/01/29 01:37:57;;;;;;;10.98;4.85;;;;;;;;;;5071572;28;20025;-85
2024/01/29 01:40:23;;;;;;;11.43;4.72;;;;;;;;;;5071496;28;20074;-84
2024/01/29 01:42:49;;;;;;;8.18;4.82;;;;;;;;;;5071321;28;20033;-85
2024/01/29 01:45:15;;;;;;;10.52;5.32;;;;;;;;;;5071428;28;20021;-86
2024/01/29 01:47:42;;;;;;;11.85;5.65;;;;;;;;;;5071010;28;20040;-85
2024/01/29 01:50:09;;;;;;;11.70;5.85;;;;;;;;;;5071508;28;20463;-85
2024/01/29 01:52:35;;;;;;;9.93;5.40;;;;;;;;;;5070989;28;20033;-86
2024/01/29 01:55:01;;;;;;;9.70;5.28;;;;;;;;;;5071255;28;20020;-85
2024/01/29 01:57:29;;;;;;;9.20;5.35;;;;;;;;;;5071210;28;20027;-85
2024/01/29 01:59:55;;;;;;;7.78;4.88;;;;;;;;;;5071058;28;20025;-86
2024/01/29 02:02:21;;;;;;;11.90;5.43;;;;;;;;;;5071374;28;20032;-84
2024/01/29 02:04:48;;;;;;;9.98;4.88;;;;;;;;;;5070976;28;20089;-85
2024/01/29 02:07:14;;;;;;;9.45;4.38;;;;;;;;;;5071179;28;20434;-86
2024/01/29 02:09:40;;;;;;;10.85;4.68;;;;;;;;;;5071256;28;20388;-88
2024/01/29 02:12:08;;;;;;;10.10;4.75;;;;;;;;;;5071600;28;20469;-88
2024/01/29 02:14:34;;;;;;;7.93;4.70;;;;;;;;;;5071320;28;20020;-89
2024/01/29 02:17:00;;;;;;;8.98;4.70;;;;;;;;;;5071707;28;20025;-88
2024/01/29 02:19:26;;;;;;;12.23;5.78;;;;;;;;;;5071673;28;20036;-88
2024/01/29 02:21:53;;;;;;;10.80;5.22;;;;;;;;;;5071759;28;20119;-89
2024/01/29 02:24:19;;;;;;;13.68;5.13;;;;;;;;;;5072102;28;20063;-89
2024/01/29 02:26:48;;;;;;;11.82;5.80;;;;;;;;;;5071611;28;20029;-88
2024/01/29 02:29:14;;;;;;;11.07;4.50;;;;;;;;;;5071924;28;20078;-88
2024/01/29 02:31:40;;;;;;;11.68;5.72;;;;;;;;;;5071489;28;20286;-86
2024/01/29 02:34:06;;;;;;;9.32;4.88;;;;;;;;;;5071327;28;20024;-86
2024/01/29 02:36:32;;;;;;;10.48;5.55;;;;;;;;;;5071365;28;20021;-87
2024/01/29 02:38:58;;;;;;;10.10;4.88;;;;;;;;;;5071356;28;20086;-84
2024/01/29 02:41:27;;;;;;;10.63;5.38;;;;;;;;;;5071119;28;20031;-85
2024/01/29 02:43:53;;;;;;;10.18;5.18;;;;;;;;;;5070980;28;20025;-86
2024/01/29 02:46:19;;;;;;;10.00;5.30;;;;;;;;;;5071082;28;20472;-85
2024/01/29 02:48:48;;;;;;;10.82;5.32;;;;;;;;;;5070697;28;20033;-85
2024/01/29 02:51:14;;;;;;;8.98;4.72;;;;;;;;;;5070933;28;20025;-85
2024/01/29 02:53:40;;;;;;;9.82;4.85;;;;;;;;;;5070529;28;20028;-85
2024/01/29 02:56:06;;;;;;;10.77;4.88;;;;;;;;;;5074546;28;20016;-85
2024/01/29 02:58:32;;;;;;;8.30;4.88;;;;;;;;;;5074697;28;20021;-86
2024/01/29 03:00:58;;;;;;;10.80;5.20;;;;;;;;;;5074624;28;20059;-85
2024/01/29 03:03:24;;;;;;;11.60;5.70;;;;;;;;;;5074055;28;20036;-85
2024/01/29 03:05:50;;;;;;;10.48;5.43;;;;;;;;;;5074361;28;20419;-84
2024/01/29 03:08:17;;;;;;;9.93;5.10;;;;;;;;;;5074220;28;20047;-85
2024/01/29 03:10:43;;;;;;;11.07;5.65;;;;;;;;;;5074549;28;20306;-85
2024/01/29 03:13:09;;;;;;;12.18;5.47;;;;;;;;;;5075955;28;20376;-87
2024/01/29 03:15:35;;;;;;;10.30;5.75;;;;;;;;;;5083090;28;20289;-84
2024/01/29 03:18:01;;;;;;;7.53;5.28;;;;;;;;;;5080159;28;20039;-83
2024/01/29 03:20:27;;;;;;;10.38;5.05;;;;;;;;;;5074436;28;20028;-82
2024/01/29 03:22:53;;;;;;;9.93;5.97;;;;;;;;;;5074046;28;20029;-82
2024/01/29 03:25:19;;;;;;;9.43;4.50;;;;;;;;;;5074083;28;20389;-83
2024/01/29 03:27:45;;;;;;;8.50;5.22;;;;;;;;;;5074241;28;20028;-88
2024/01/29 03:30:11;;;;;;;12.00;5.50;;;;;;;;;;5074619;28;20024;-84
2024/01/29 03:32:37;;;;;;;11.35;5.95;;;;;;;;;;5074462;28;20024;-83
2024/01/29 03:35:04;;;;;;;9.55;5.25;;;;;;;;;;5076652;28;20115;-87
2024/01/29 03:37:30;;;;;;;11.68;6.15;;;;;;;;;;5088763;28;20008;-86
2024/01/29 03:39:56;;;;;;;11.45;5.47;;;;;;;;;;5099010;28;20008;-86
2024/01/29 03:42:22;;;;;;;7.20;5.13;;;;;;;;;;5099250;28;20012;-86
2024/01/29 03:44:48;;;;;;;9.15;5.85;;;;;;;;;;5092113;28;20028;-84
2024/01/29 03:47:14;;;;;;;9.85;5.38;;;;;;;;;;5085209;28;20021;-84
2024/01/29 03:49:40;;;;;;;10.50;5.68;;;;;;;;;;5073320;28;20419;-83
2024/01/29 03:52:06;;;;;;;12.68;5.13;;;;;;;;;;5073186;28;20025;-84
2024/01/29 03:54:32;;;;;;;9.55;5.63;;;;;;;;;;5073121;28;20028;-84
2024/01/29 03:56:58;;;;;;;9.82;5.82;;;;;;;;;;5072898;28;20024;-84
2024/01/29 03:59:24;;;;;;;11.00;6.20;;;;;;;;;;5072949;28;20043;-84
2024/01/29 04:01:50;;;;;;;10.48;5.68;;;;;;;;;;5072709;28;20032;-84
2024/01/29 04:04:16;;;;;;;10.18;5.30;;;;;;;;;;5072869;28;20049;-84
2024/01/29 04:06:43;;;;;;;11.65;5.50;;;;;;;;;;5072044;28;20027;-88
2024/01/29 04:09:09;;;;;;;13.50;6.55;;;;;;;;;;5073649;28;20056;-88
2024/01/29 04:11:36;;;;;;;11.45;4.85;;;;;;;;;;5073572;28;20068;-88
2024/01/29 04:14:03;;;;;;;9.57;4.80;;;;;;;;;;5074304;28;20473;-86
2024/01/29 04:16:29;;;;;;;13.60;5.65;;;;;;;;;;5072948;28;20427;-88
2024/01/29 04:18:55;;;;;;;10.93;5.30;;;;;;;;;;5072842;28;20431;-87
2024/01/29 04:21:21;;;;;;;11.57;5.47;;;;;;;;;;5073001;28;20373;-87
2024/01/29 04:23:47;;;;;;;8.55;5.00;;;;;;;;;;5072731;28;20032;-86
2024/01/29 04:26:13;;;;;;;12.55;5.45;;;;;;;;;;5073038;28;20464;-86
2024/01/29 04:28:39;;;;;;;11.82;7.15;;;;;;;;;;5072514;28;20583;-85
2024/01/29 04:31:05;;;;;;;12.82;6.03;;;;;;;;;;5072302;28;20119;-87
2024/01/29 04:33:31;;;;;;;9.35;5.90;;;;;;;;;;5072492;28;20052;-86
2024/01/29 04:35:57;;;;;;;10.43;6.00;;;;;;;;;;5072589;28;20032;-85
2024/01/29 04:38:23;;;;;;;10.70;6.28;;;;;;;;;;5073650;28;20146;-86
2024/01/29 04:40:49;;;;;;;9.63;5.30;;;;;;;;;;5072656;28;20594;-86
2024/01/29 04:43:15;;;;;;;9.85;5.68;;;;;;;;;;5072868;28;20032;-87
2024/01/29 04:45:42;;;;;;;10.77;5.20;;;;;;;;;;5072868;28;20021;-85
2024/01/29 04:48:08;;;;;;;13.93;6.32;;;;;;;;;;5072078;28;20100;-84
2024/01/29 04:50:34;;;;;;;11.82;6.40;;;;;;;;;;5072420;28;20028;-85
2024/01/29 04:53:00;;;;;;;9.50;5.68;;;;;;;;;;5072009;28;20032;-85
2024/01/29 04:55:27;;;;;;;9.10;5.20;;;;;;;;;;5072318;28;20028;-85
2024/01/29 04:57:53;;;;;;;9.68;4.97;;;;;;;;;;5071783;28;20120;-84
2024/01/29 05:00:19;;;;;;;14.73;5.97;;;;;;;;;;5071886;28;20032;-84
2024/01/29 05:02:47;;;;;;;10.85;5.65;;;;;;;;;;5071906;28;20078;-84
2024/01/29 05:05:15;;;;;;;11.80;5.57;;;;;;;;;;5073145;28;20127;-84
2024/01/29 05:07:42;;;;;;;11.68;6.03;;;;;;;;;;5072405;28;20032;-84
2024/01/29 05:10:08;;;;;;;10.15;5.93;;;;;;;;;;5071999;28;20501;-85
2024/01/29 05:12:34;;;;;;;10.38;5.82;;;;;;;;;;5072762;28;20064;-83
2024/01/29 05:15:00;;;;;;;10.15;5.88;;;;;;;;;;5072091;28;20071;-87
2024/01/29 05:17:26;;;;;;;11.38;6.38;;;;;;;;;;5072032;28;20020;-79
2024/01/29 05:19:52;;;;;;;13.48;5.50;;;;;;;;;;5071335;28;20438;-79
2024/01/29 05:22:18;;;;;;;11.38;6.85;;;;;;;;;;5072631;28;20074;-79
2024/01/29 05:24:44;;;;;;;11.68;6.15;;;;;;;;;;5071253;28;20051;-79
2024/01/29 05:27:10;;;;;;;10.35;6.07;;;;;;;;;;5071296;28;20028;-80
2024/01/29 05:29:36;;;;;;;9.93;4.90;;;;;;;;;;5072720;28;20032;-79
2024/01/29 05:32:03;;;;;;;8.40;5.10;;;;;;;;;;5071085;28;20032;-83
2024/01/29 05:34:29;;;;;;;10.65;6.75;;;;;;;;;;5073703;28;20025;-86
2024/01/29 05:36:55;;;;;;;10.32;5.72;;;;;;;;;;5071990;28;20024;-86
2024/01/29 05:39:21;;;;;;;9.48;5.10;;;;;;;;;;5072223;28;20021;-86
2024/01/29 05:41:47;;;;;;;10.27;5.78;;;;;;;;;;5071692;28;20027;-85
2024/01/29 05:44:13;;;;;;;14.63;6.53;;;;;;;;;;5071691;28;20016;-85
2024/01/29 05:46:39;;;;;;;12.07;6.38;;;;;;;;;;5071995;28;20027;-84
2024/01/29 05:49:06;;;;;;;10.30;5.85;;;;;;;;;;5071923;28;20024;-84
2024/01/29 05:51:32;;;;;;;11.20;6.28;;;;;;;;;;5072164;28;20036;-85
2024/01/29 05:53:59;;;;;;;13.30;6.40;;;;;;;;;;5073341;28;20024;-83
2024/01/29 05:56:25;;;;;;;12.90;6.60;;;;;;;;;;5080931;28;20380;-82
2024/01/29 05:58:51;;;;;;;12.55;7.63;;;;;;;;;;5096564;28;20032;-84
2024/01/29 06:01:17;;;;;;;11.82;5.90;;;;;;;;;;5096725;28;20033;-86
2024/01/29 06:03:43;;;;;;;13.48;7.50;;;;;;;;;;5093875;28;20047;-83
2024/01/29 06:06:09;;;;;;;11.77;6.53;;;;;;;;;;5087919;28;20060;-86
2024/01/29 06:08:35;;;;;;;10.63;5.50;;;;;;;;;;5074938;28;20087;-86
2024/01/29 06:11:01;;;;;;;12.30;7.47;;;;;;;;;;5071348;28;20484;-86
2024/01/29 06:13:27;;;;;;;9.75;5.57;;;;;;;;;;5071486;28;20079;-85
2024/01/29 06:15:53;;;;;;;10.32;6.10;;;;;;;;;;5071370;28;20036;-85
2024/01/29 06:18:19;;;;;;;12.38;6.60;;;;;;;;;;5072198;28;20039;-83
2024/01/29 06:20:46;;;;;;;11.52;6.40;;;;;;;;;;5071114;28;20028;-84
2024/01/29 06:23:14;;;;;;;15.05;7.72;;;;;;;;;;5072034;28;20012;-83
2024/01/29 06:25:40;;;;;;;11.88;5.82;;;;;;;;;;5070815;28;20030;-83
2024/01/29 06:28:07;;;;;;;13.23;5.43;;;;;;;;;;5070804;28;20426;-83
2024/01/29 06:30:33;;;;;;;11.23;7.18;;;;;;;;;;5074438;28;20029;-83
2024/01/29 06:33:00;;;;;;;11.00;5.72;;;;;;;;;;5074759;28;20033;-83
2024/01/29 06:35:26;;;;;;;11.80;7.00;;;;;;;;;;5075161;28;20060;-86
2024/01/29 06:38:01;;;;;;;20.75;11.80;;;;;;;;;;5074977;28;20047;-87
2024/01/29 06:40:27;;;;;;;39.15;21.05;;;;;;;;;;5075566;28;20031;-84
2024/01/29 06:42:54;;;;;;;31.85;17.52;;;;;;;;;;5074428;28;20032;-86
2024/01/29 06:45:20;;;;;;;18.88;10.13;;;;;;;;;;5074531;28;20062;-82
2024/01/29 06:47:46;;;;;;;120.13;49.08;;;;;;;;;;5075927;28;20086;-84
2024/01/29 06:50:12;;;;;;;25.60;13.25;;;;;;;;;;5074385;28;20028;-84
2024/01/29 06:52:39;;;;;;;30.42;15.77;;;;;;;;;;5074149;28;20034;-84
2024/01/29 06:55:05;;;;;;;12.82;7.63;;;;;;;;;;5074853;28;20064;-87
2024/01/29 06:57:31;;;;;;;25.00;15.40;;;;;;;;;;5081242;28;20392;-92
2024/01/29 06:59:57;;;;;;;24.23;13.88;;;;;;;;;;5098812;28;20009;-92
2024/01/29 07:02:24;;;;;;;13.25;7.97;;;;;;;;;;5095386;28;20059;-91
2024/01/29 07:04:50;;;;;;;20.10;7.93;;;;;;;;;;5096291;28;20045;-90
2024/01/29 07:07:16;;;;;;;13.57;7.25;;;;;;;;;;5086100;28;20060;-90
2024/01/29 07:09:42;;;;;;;15.18;9.02;;;;;;;;;;5077439;28;20029;-93
2024/01/29 07:12:08;;;;;;;11.73;6.68;;;;;;;;;;5076514;28;20033;-91
2024/01/29 07:14:35;;;;;;;19.52;7.15;;;;;;;;;;5077034;28;20059;-91
2024/01/29 07:17:01;;;;;;;14.90;7.97;;;;;;;;;;5076973;28;20021;-92
2024/01/29 07:19:32;;;;;;;12.38;7.00;;;;;;;;;;5076867;28;20024;-91
2024/01/29 07:21:59;;;;;;;12.27;7.55;;;;;;;;;;5077624;28;20527;-91
2024/01/29 07:24:25;;;;;;;9.95;6.70;;;;;;;;;;5081396;28;20024;-90
2024/01/29 07:26:51;;;;;;;11.30;6.47;;;;;;;;;;5086646;28;20025;-91
2024/01/29 07:29:17;;;;;;;12.60;6.68;;;;;;;;;;5088548;28;20024;-91
2024/01/29 07:31:43;;;;;;;12.38;7.00;;;;;;;;;;5083109;28;20043;-91
2024/01/29 07:34:09;;;;;;;11.13;7.05;;;;;;;;;;5083316;28;20025;-91
2024/01/29 07:36:38;;;;;;;9.07;5.57;;;;;;;;;;5076616;28;20028;-91
2024/01/29 07:39:04;;;;;;;12.02;7.50;;;;;;;;;;5076971;28;20026;-88
2024/01/29 07:41:31;;;;;;;11.20;6.55;;;;;;;;;;5084219;28;20051;-89
2024/01/29 07:43:57;;;;;;;12.75;6.90;;;;;;;;;;5083356;28;20021;-89
2024/01/29 07:46:23;;;;;;;13.55;7.20;;;;;;;;;;5086968;28;20025;-89
2024/01/29 07:48:49;;;;;;;12.52;7.07;;;;;;;;;;5077086;28;20039;-91
2024/01/29 07:51:15;;;;;;;11.95;6.50;;;;;;;;;;5075882;28;20024;-92
2024/01/29 07:53:41;;;;;;;14.00;7.22;;;;;;;;;;5076349;28;20025;-92
2024/01/29 07:56:08;;;;;;;11.80;6.45;;;;;;;;;;5076591;28;20388;-93
2024/01/29 07:58:34;;;;;;;11.63;6.45;;;;;;;;;;5076590;28;20082;-92
2024/01/29 08:01:00;;;;;;;9.82;6.93;;;;;;;;;;5077182;28;20086;-92
2024/01/29 08:03:26;;;;;;;13.50;6.78;;;;;;;;;;5076226;28;20028;-92
2024/01/29 08:05:52;;;;;;;12.07;7.03;;;;;;;;;;5075782;28;20112;-91
2024/01/29 08:08:18;;;;;;;12.35;6.78;;;;;;;;;;5074521;28;20033;-90
2024/01/29 08:10:44;;;;;;;14.77;6.90;;;;;;;;;;5075340;28;20025;-90
2024/01/29 08:13:10;;;;;;;11.48;7.43;;;;;;;;;;5076434;28;20024;-89
2024/01/29 08:15:38;;;;;;;11.43;6.78;;;;;;;;;;5089798;28;20042;-88
2024/01/29 08:18:04;;;;;;;13.30;7.50;;;;;;;;;;5098573;28;20028;-88
2024/01/29 08:20:30;;;;;;;16.50;7.88;;;;;;;;;;5098393;28;20013;-89
2024/01/29 08:22:56;;;;;;;10.90;6.30;;;;;;;;;;5096784;28;20039;-89
2024/01/29 08:25:22;;;;;;;13.30;6.70;;;;;;;;;;5089261;28;20040;-88
2024/01/29 08:27:49;;;;;;;9.25;5.72;;;;;;;;;;5073997;28;20071;-90
2024/01/29 08:30:15;;;;;;;11.38;5.97;;;;;;;;;;5073511;28;20086;-88
2024/01/29 08:32:42;;;;;;;10.00;6.05;;;;;;;;;;5073396;28;20051;-89
2024/01/29 08:35:09;;;;;;;9.70;5.47;;;;;;;;;;5073353;28;20087;-89
2024/01/29 08:37:35;;;;;;;11.60;5.90;;;;;;;;;;5074393;28;20029;-89
2024/01/29 08:40:02;;;;;;;9.57;5.60;;;;;;;;;;5073160;28;20544;-89
2024/01/29 08:42:28;;;;;;;10.98;6.40;;;;;;;;;;5073508;28;20035;-89
2024/01/29 08:44:57;;;;;;;10.02;6.22;;;;;;;;;;5073373;28;20036;-82
2024/01/29 08:47:23;;;;;;;10.65;5.07;;;;;;;;;;5075087;28;20099;-89
2024/01/29 08:49:52;;;;;;;7.05;4.57;;;;;;;;;;5091149;28;20436;-91
2024/01/29 08:52:18;;;;;;;8.82;4.70;;;;;;;;;;5079849;28;20486;-91
2024/01/29 08:54:44;;;;;;;11.10;5.72;;;;;;;;;;5094090;28;20025;-91
2024/01/29 08:57:11;;;;;;;8.52;3.90;;;;;;;;;;5076487;28;20025;-88
2024/01/29 08:59:38;;;;;;;8.88;5.45;;;;;;;;;;5073778;28;20020;-89
2024/01/29 09:02:05;;;;;;;9.18;5.03;;;;;;;;;;5073243;28;20055;-89
2024/01/29 09:04:31;;;;;;;9.52;5.43;;;;;;;;;;5073388;28;20044;-90
2024/01/29 09:06:57;;;;;;;9.13;5.90;;;;;;;;;;5073453;28;20029;-90
2024/01/29 09:09:23;;;;;;;8.25;4.80;;;;;;;;;;5073943;28;20468;-91
2024/01/29 09:11:51;;;;;;;8.70;4.55;;;;;;;;;;5073518;28;20318;-90
2024/01/29 09:14:17;;;;;;;8.23;4.93;;;;;;;;;;5073319;28;20069;-91
2024/01/29 09:16:44;;;;;;;7.68;4.57;;;;;;;;;;5074124;28;20036;-90
2024/01/29 09:19:10;;;;;;;9.52;5.65;;;;;;;;;;5073515;28;20036;-90
2024/01/29 09:21:36;;;;;;;10.07;5.88;;;;;;;;;;5073642;28;20479;-91
2024/01/29 09:24:03;;;;;;;8.57;5.00;;;;;;;;;;5073555;28;20020;-90
2024/01/29 09:26:29;;;;;;;10.00;5.45;;;;;;;;;;5073838;28;20384;-90
2024/01/29 09:28:55;;;;;;;7.95;4.28;;;;;;;;;;5073341;28;20027;-91
2024/01/29 09:31:21;;;;;;;9.40;5.13;;;;;;;;;;5073308;28;20024;-90
2024/01/29 09:33:47;;;;;;;11.57;6.05;;;;;;;;;;5073192;28;20029;-91
2024/01/29 09:36:13;;;;;;;8.13;4.30;;;;;;;;;;5073436;28;20024;-90
2024/01/29 09:38:39;;;;;;;7.40;4.45;;;;;;;;;;5073102;28;20039;-89
2024/01/29 09:41:06;;;;;;;7.05;3.97;;;;;;;;;;5072814;28;20128;-90
2024/01/29 09:43:34;;;;;;;9.18;4.97;;;;;;;;;;5072905;28;20520;-91
2024/01/29 09:46:02;;;;;;;9.15;5.90;;;;;;;;;;5073065;28;20031;-91
2024/01/29 09:48:30;;;;;;;10.57;6.55;;;;;;;;;;5072912;28;20063;-91
2024/01/29 09:50:58;;;;;;;9.60;5.03;;;;;;;;;;5073027;28;20024;-90
2024/01/29 09:53:24;;;;;;;8.88;4.57;;;;;;;;;;5073043;28;20036;-90
2024/01/29 09:55:50;;;;;;;12.82;7.38;;;;;;;;;;5073160;28;20058;-91
2024/01/29 09:58:17;;;;;;;8.40;4.85;;;;;;;;;;5073614;28;20032;-90
2024/01/29 10:00:43;;;;;;;11.73;6.32;;;;;;;;;;5073220;28;20551;-89
2024/01/29 10:03:21;;;;;;;10.55;5.25;;;;;;;;;;5074048;28;20029;-87
2024/01/29 10:05:48;;;;;;;10.52;5.55;;;;;;;;;;5076825;28;20028;-88
2024/01/29 10:08:14;;;;;;;11.77;6.78;;;;;;;;;;5076700;28;20032;-90
2024/01/29 10:10:41;;;;;;;9.13;5.95;;;;;;;;;;5076787;28;20025;-89
2024/01/29 10:13:07;;;;;;;7.68;5.10;;;;;;;;;;5076953;28;20410;-90
2024/01/29 10:15:34;;;;;;;8.90;5.65;;;;;;;;;;5076933;28;20052;-90
2024/01/29 10:18:00;;;;;;;8.40;5.95;;;;;;;;;;5077260;28;20025;-89
2024/01/29 10:20:26;;;;;;;7.68;3.95;;;;;;;;;;5076530;28;20078;-90
2024/01/29 10:23:02;;;;;;;9.60;6.00;;;;;;;;;;5077487;28;20109;-91
2024/01/29 10:25:30;;;;;;;12.00;5.25;;;;;;;;;;5076551;28;20518;-90
2024/01/29 10:28:06;;;;;;;8.27;4.57;;;;;;;;;;5077273;28;20036;-91
2024/01/29 10:30:32;;;;;;;8.60;5.25;;;;;;;;;;5080021;28;20017;-89
2024/01/29 10:32:58;;;;;;;8.82;5.13;;;;;;;;;;5092039;28;20020;-90
2024/01/29 10:35:25;;;;;;;9.07;5.13;;;;;;;;;;5100544;28;20009;-89
2024/01/29 10:37:51;;;;;;;8.48;4.07;;;;;;;;;;5100556;28;20012;-91
2024/01/29 10:40:21;;;;;;;7.40;3.97;;;;;;;;;;5099828;28;20027;-91
2024/01/29 10:42:51;;;;;;;15.48;8.60;;;;;;;;;;5096198;28;20029;-93
2024/01/29 10:45:20;;;;;;;9.65;5.95;;;;;;;;;;5094916;28;20024;-90
2024/01/29 10:47:48;;;;;;;10.75;5.70;;;;;;;;;;5089019;28;20028;-92
2024/01/29 10:50:18;;;;;;;9.00;5.45;;;;;;;;;;5078156;28;20036;-92
2024/01/29 10:52:48;;;;;;;8.95;6.30;;;;;;;;;;5075783;28;20028;-90
2024/01/29 10:55:19;;;;;;;9.93;6.15;;;;;;;;;;5076179;28;20441;-91
2024/01/29 10:57:46;;;;;;;8.73;5.60;;;;;;;;;;5076937;28;20375;-91
2024/01/29 11:00:13;;;;;;;11.77;5.70;;;;;;;;;;5076101;28;20049;-92
2024/01/29 11:02:40;;;;;;;10.27;6.18;;;;;;;;;;5076127;28;20111;-90
2024/01/29 11:05:07;;;;;;;8.88;5.60;;;;;;;;;;5076064;28;20053;-90
2024/01/29 11:07:33;;;;;;;9.35;6.53;;;;;;;;;;5076030;28;20025;-90
2024/01/29 11:10:07;;;;;;;9.70;6.28;;;;;;;;;;5076743;28;20029;-90
2024/01/29 11:12:33;;;;;;;8.40;5.57;;;;;;;;;;5075642;28;20059;-91
2024/01/29 11:15:00;;;;;;;8.15;3.85;;;;;;;;;;5074894;28;20510;-91
2024/01/29 11:17:27;;;;;;;11.43;7.13;;;;;;;;;;5075768;28;20050;-90
2024/01/29 11:19:53;;;;;;;11.48;7.72;;;;;;;;;;5077383;28;20028;-91
2024/01/29 11:22:19;;;;;;;11.73;7.15;;;;;;;;;;5076437;28;20031;-92
2024/01/29 11:24:45;;;;;;;9.07;5.30;;;;;;;;;;5076312;28;20029;-92
2024/01/29 11:27:13;;;;;;;7.93;4.53;;;;;;;;;;5075623;28;20028;-91
2024/01/29 11:29:39;;;;;;;8.18;4.50;;;;;;;;;;5076085;28;20016;-91
2024/01/29 11:32:06;;;;;;;11.63;6.07;;;;;;;;;;5075883;28;20419;-92
2024/01/29 11:34:32;;;;;;;11.02;6.32;;;;;;;;;;5076200;28;20174;-93
2024/01/29 11:37:00;;;;;;;7.90;4.70;;;;;;;;;;5076758;28;20028;-92
2024/01/29 11:39:27;;;;;;;9.85;5.32;;;;;;;;;;5075620;28;20364;-92
2024/01/29 11:41:54;;;;;;;10.18;5.50;;;;;;;;;;5075307;28;20362;-91
2024/01/29 11:44:23;;;;;;;10.07;4.70;;;;;;;;;;5059480;28;20021;-89
2024/01/29 11:46:50;;;;;;;8.23;4.75;;;;;;;;;;5075212;28;20024;-90
2024/01/29 11:49:25;;;;;;;10.10;6.28;;;;;;;;;;5074785;28;20123;-90
2024/01/29 11:51:54;;;;;;;10.02;4.60;;;;;;;;;;5074897;28;20032;-92
2024/01/29 11:54:21;;;;;;;6.25;3.50;;;;;;;;;;5074649;28;20488;-91
2024/01/29 11:56:48;;;;;;;6.63;3.92;;;;;;;;;;5074568;28;20059;-90
2024/01/29 11:59:14;;;;;;;6.18;4.00;;;;;;;;;;5074620;28;20029;-89
2024/01/29 12:01:42;;;;;;;7.93;4.25;;;;;;;;;;5075213;28;20025;-90
2024/01/29 12:04:09;;;;;;;8.75;5.03;;;;;;;;;;5073617;28;20122;-86
2024/01/29 12:06:35;;;;;;;6.88;3.38;;;;;;;;;;5073820;28;20050;-88
2024/01/29 12:09:01;;;;;;;12.75;6.85;;;;;;;;;;5073440;28;20021;-87
2024/01/29 12:11:27;;;;;;;9.18;4.00;;;;;;;;;;5073206;28;20021;-85
2024/01/29 12:13:56;;;;;;;9.20;4.57;;;;;;;;;;5073088;28;20031;-86
2024/01/29 12:16:23;;;;;;;7.13;4.32;;;;;;;;;;5073030;28;20029;-86
2024/01/29 12:18:49;;;;;;;7.97;3.88;;;;;;;;;;5073344;28;20016;-85
2024/01/29 12:21:15;;;;;;;7.68;3.85;;;;;;;;;;5073782;28;20021;-90
2024/01/29 12:23:42;;;;;;;7.93;4.50;;;;;;;;;;5073764;28;20070;-89
2024/01/29 12:26:08;;;;;;;7.05;4.15;;;;;;;;;;5073020;28;20082;-88
2024/01/29 12:28:34;;;;;;;7.15;3.03;;;;;;;;;;5072830;28;20419;-88
2024/01/29 12:31:06;;;;;;;6.78;4.28;;;;;;;;;;5074584;28;20027;-89
2024/01/29 12:33:32;;;;;;;6.47;3.58;;;;;;;;;;5081478;28;20036;-87
2024/01/29 12:36:10;;;;;;;7.28;4.32;;;;;;;;;;5081057;28;20066;-84
2024/01/29 12:38:36;;;;;;;7.20;4.57;;;;;;;;;;5086615;28;20021;-87
2024/01/29 12:41:02;;;;;;;9.43;5.65;;;;;;;;;;5075151;28;20028;-88
2024/01/29 12:43:29;;;;;;;7.50;4.15;;;;;;;;;;5078784;28;20033;-88
2024/01/29 12:46:04;;;;;;;7.60;3.85;;;;;;;;;;5087547;28;20012;-88
2024/01/29 12:48:30;;;;;;;6.95;3.80;;;;;;;;;;5095606;28;20021;-88
2024/01/29 12:50:57;;;;;;;7.90;5.25;;;;;;;;;;5097770;28;20035;-88
2024/01/29 12:53:23;;;;;;;7.15;3.78;;;;;;;;;;5095011;28;20055;-88
2024/01/29 12:55:49;;;;;;;9.48;5.72;;;;;;;;;;5079002;28;20020;-87
2024/01/29 12:58:15;;;;;;;8.18;4.72;;;;;;;;;;5077694;28;20028;-89
2024/01/29 13:00:43;;;;;;;9.35;5.75;;;;;;;;;;5061479;28;20020;-90
2024/01/29 13:03:10;;;;;;;9.00;5.00;;;;;;;;;;5072921;28;20028;-89
2024/01/29 13:05:37;;;;;;;7.68;4.45;;;;;;;;;;5072723;28;20045;-88
2024/01/29 13:08:03;;;;;;;7.15;3.53;;;;;;;;;;5072848;28;20020;-89
2024/01/29 13:10:30;;;;;;;7.20;3.10;;;;;;;;;;5072767;28;20114;-89
2024/01/29 13:12:56;;;;;;;5.72;3.25;;;;;;;;;;5072911;28;20039;-87
2024/01/29 13:15:22;;;;;;;8.15;4.65;;;;;;;;;;5073064;28;20017;-88
2024/01/29 13:17:48;;;;;;;6.15;3.65;;;;;;;;;;5072756;28;20067;-88
2024/01/29 13:20:15;;;;;;;10.23;5.25;;;;;;;;;;5072382;28;20357;-88
2024/01/29 13:22:41;;;;;;;8.20;5.13;;;;;;;;;;5072474;28;20025;-86
2024/01/29 13:25:07;;;;;;;8.85;4.68;;;;;;;;;;5075614;28;20538;-88
2024/01/29 13:27:34;;;;;;;7.00;3.53;;;;;;;;;;5078193;28;20033;-89
2024/01/29 13:30:00;;;;;;;8.68;5.07;;;;;;;;;;5077514;28;20021;-89
2024/01/29 13:32:26;;;;;;;7.22;4.25;;;;;;;;;;5075245;28;20032;-89
2024/01/29 13:34:52;;;;;;;8.52;5.25;;;;;;;;;;5072730;28;20029;-90
2024/01/29 13:37:18;;;;;;;9.02;4.32;;;;;;;;;;5072522;28;20040;-89
2024/01/29 13:39:45;;;;;;;7.93;4.35;;;;;;;;;;5072322;28;20028;-89
2024/01/29 13:42:11;;;;;;;9.15;4.93;;;;;;;;;;5072404;28;20056;-90
2024/01/29 13:44:38;;;;;;;7.75;4.28;;;;;;;;;;5072300;28;20020;-88
2024/01/29 13:47:04;;;;;;;10.50;4.25;;;;;;;;;;5072971;28;20369;-89
2024/01/29 13:49:30;;;;;;;9.73;4.47;;;;;;;;;;5072313;28;20371;-88
2024/01/29 13:51:57;;;;;;;10.25;6.10;;;;;;;;;;5071943;28;20029;-89
2024/01/29 13:54:23;;;;;;;9.82;6.07;;;;;;;;;;5071692;28;20028;-88
2024/01/29 13:56:49;;;;;;;9.20;4.70;;;;;;;;;;5071725;28;20016;-90
2024/01/29 13:59:15;;;;;;;10.23;5.63;;;;;;;;;;5072352;28;20108;-87
2024/01/29 14:01:41;;;;;;;10.18;5.45;;;;;;;;;;5071825;28;20046;-88
2024/01/29 14:04:07;;;;;;;6.93;3.92;;;;;;;;;;5072360;28;20055;-89
2024/01/29 14:06:33;;;;;;;7.10;4.30;;;;;;;;;;5071904;28;20017;-90
2024/01/29 14:08:59;;;;;;;5.95;4.07;;;;;;;;;;5072238;28;20074;-89
2024/01/29 14:11:26;;;;;;;10.13;6.05;;;;;;;;;;5071771;28;20029;-90
2024/01/29 14:13:52;;;;;;;7.15;3.92;;;;;;;;;;5072115;28;20043;-90
2024/01/29 14:16:22;;;;;;;9.18;4.75;;;;;;;;;;5071936;28;20020;-87
2024/01/29 14:18:49;;;;;;;11.48;7.93;;;;;;;;;;5072189;28;20028;-88
2024/01/29 14:21:16;;;;;;;8.88;4.78;;;;;;;;;;5073946;28;20035;-90
2024/01/29 14:23:42;;;;;;;7.85;4.43;;;;;;;;;;5075019;28;20108;-85
2024/01/29 14:26:08;;;;;;;11.98;6.03;;;;;;;;;;5084259;28;20028;-85
2024/01/29 14:28:34;;;;;;;7.80;4.15;;;;;;;;;;5082722;28;20036;-85
2024/01/29 14:31:00;;;;;;;8.20;6.03;;;;;;;;;;5083299;28;20468;-88